sensor_id;sensor_type;location;lat;lon;timestamp;pressure;altitude;pressure_sealevel;temperature;humidity
75401;BME280;63974;47.538;18.972;2023-05-27T00:00:29;100471.47;;;17.98;70.79
75401;BME280;63974;47.538;18.972;2023-05-27T00:03:34;100470.63;;;18.04;70.76
75401;BME280;63974;47.538;18.972;2023-05-27T00:06:38;100471.16;;;18.12;70.18
75401;BME280;63974;47.538;18.972;2023-05-27T00:09:41;100470.84;;;18.33;69.98
75401;BME280;63974;47.538;18.972;2023-05-27T00:12:43;100465.59;;;18.33;69.55
75401;BME280;63974;47.538;18.972;2023-05-27T00:15:46;100469.72;;;18.47;69.57
75401;BME280;63974;47.538;18.972;2023-05-27T00:18:49;100473.97;;;18.48;69.69
75401;BME280;63974;47.538;18.972;2023-05-27T00:21:52;100472.16;;;18.49;69.48
75401;BME280;63974;47.538;18.972;2023-05-27T00:24:55;100464.41;;;18.54;69.25
75401;BME280;63974;47.538;18.972;2023-05-27T00:27:58;100453.13;;;18.47;69.18
75401;BME280;63974;47.538;18.972;2023-05-27T00:31:02;100462.47;;;18.43;69.31
75401;BME280;63974;47.538;18.972;2023-05-27T00:34:05;100466.81;;;18.31;70.41
75401;BME280;63974;47.538;18.972;2023-05-27T00:37:08;100472.34;;;18.16;70.56
75401;BME280;63974;47.538;18.972;2023-05-27T00:40:14;100454.91;;;18.22;71.73
75401;BME280;63974;47.538;18.972;2023-05-27T00:43:17;100459.53;;;18.26;70.93
75401;BME280;63974;47.538;18.972;2023-05-27T00:46:20;100462.16;;;18.02;71.52
75401;BME280;63974;47.538;18.972;2023-05-27T00:49:23;100458.03;;;17.82;72.12
75401;BME280;63974;47.538;18.972;2023-05-27T00:52:29;100451.63;;;17.71;72.84
75401;BME280;63974;47.538;18.972;2023-05-27T00:55:32;100457.50;;;17.67;72.87
75401;BME280;63974;47.538;18.972;2023-05-27T00:58:36;100454.69;;;17.68;73.20
75401;BME280;63974;47.538;18.972;2023-05-27T01:01:40;100446.16;;;17.73;73.16
75401;BME280;63974;47.538;18.972;2023-05-27T01:04:46;100445.84;;;17.87;72.50
75401;BME280;63974;47.538;18.972;2023-05-27T01:08:08;100451.47;;;17.97;72.17
75401;BME280;63974;47.538;18.972;2023-05-27T01:11:16;100440.56;;;17.63;73.07
75401;BME280;63974;47.538;18.972;2023-05-27T01:14:20;100434.19;;;17.46;73.70
75401;BME280;63974;47.538;18.972;2023-05-27T01:17:26;100439.88;;;17.36;74.49
75401;BME280;63974;47.538;18.972;2023-05-27T01:20:30;100438.88;;;17.24;74.76
75401;BME280;63974;47.538;18.972;2023-05-27T01:23:35;100440.16;;;17.15;75.03
75401;BME280;63974;47.538;18.972;2023-05-27T01:26:42;100431.88;;;17.12;74.87
75401;BME280;63974;47.538;18.972;2023-05-27T01:29:45;100431.31;;;17.03;75.17
75401;BME280;63974;47.538;18.972;2023-05-27T01:36:01;100418.38;;;17.08;74.86
75401;BME280;63974;47.538;18.972;2023-05-27T01:39:05;100414.16;;;17.01;75.13
75401;BME280;63974;47.538;18.972;2023-05-27T01:42:10;100415.56;;;16.97;75.80
75401;BME280;63974;47.538;18.972;2023-05-27T01:45:13;100420.47;;;16.87;75.74
75401;BME280;63974;47.538;18.972;2023-05-27T01:48:17;100411.22;;;16.65;77.01
75401;BME280;63974;47.538;18.972;2023-05-27T01:51:21;100413.63;;;16.60;77.26
75401;BME280;63974;47.538;18.972;2023-05-27T01:54:24;100416.25;;;16.53;77.16
75401;BME280;63974;47.538;18.972;2023-05-27T01:57:27;100412.66;;;16.54;77.04
75401;BME280;63974;47.538;18.972;2023-05-27T02:00:30;100421.72;;;16.52;77.61
75401;BME280;63974;47.538;18.972;2023-05-27T02:03:33;100419.53;;;16.49;77.35
75401;BME280;63974;47.538;18.972;2023-05-27T02:06:36;100418.88;;;16.53;77.18
75401;BME280;63974;47.538;18.972;2023-05-27T02:09:39;100427.16;;;16.50;77.44
75401;BME280;63974;47.538;18.972;2023-05-27T02:12:42;100419.28;;;16.57;76.99
75401;BME280;63974;47.538;18.972;2023-05-27T02:15:46;100417.88;;;16.67;76.64
75401;BME280;63974;47.538;18.972;2023-05-27T02:18:49;100423.13;;;16.74;76.46
75401;BME280;63974;47.538;18.972;2023-05-27T02:21:52;100417.66;;;16.62;76.91
75401;BME280;63974;47.538;18.972;2023-05-27T02:24:55;100427.59;;;16.41;77.75
75401;BME280;63974;47.538;18.972;2023-05-27T02:27:58;100430.22;;;16.41;77.92
75401;BME280;63974;47.538;18.972;2023-05-27T02:31:06;100438.44;;;16.31;78.52
75401;BME280;63974;47.538;18.972;2023-05-27T02:34:09;100425.13;;;16.26;78.67
75401;BME280;63974;47.538;18.972;2023-05-27T02:37:12;100429.16;;;16.22;78.88
75401;BME280;63974;47.538;18.972;2023-05-27T02:40:28;100419.09;;;16.26;78.70
75401;BME280;63974;47.538;18.972;2023-05-27T02:43:31;100422.31;;;16.21;78.81
75401;BME280;63974;47.538;18.972;2023-05-27T02:46:34;100423.94;;;16.22;78.96
75401;BME280;63974;47.538;18.972;2023-05-27T02:49:37;100419.88;;;16.20;78.82
75401;BME280;63974;47.538;18.972;2023-05-27T02:52:39;100426.97;;;16.13;79.36
75401;BME280;63974;47.538;18.972;2023-05-27T02:55:42;100426.34;;;16.17;79.19
75401;BME280;63974;47.538;18.972;2023-05-27T02:58:45;100427.97;;;16.12;79.55
75401;BME280;63974;47.538;18.972;2023-05-27T03:01:48;100425.53;;;16.10;79.56
75401;BME280;63974;47.538;18.972;2023-05-27T03:04:51;100428.56;;;16.07;79.74
75401;BME280;63974;47.538;18.972;2023-05-27T03:07:57;100439.44;;;16.11;79.07
75401;BME280;63974;47.538;18.972;2023-05-27T03:11:00;100438.63;;;16.04;79.17
75401;BME280;63974;47.538;18.972;2023-05-27T03:14:03;100443.06;;;16.10;79.46
75401;BME280;63974;47.538;18.972;2023-05-27T03:17:06;100453.16;;;16.00;79.61
75401;BME280;63974;47.538;18.972;2023-05-27T03:20:09;100460.00;;;16.07;79.67
75401;BME280;63974;47.538;18.972;2023-05-27T03:23:14;100454.75;;;16.01;79.59
75401;BME280;63974;47.538;18.972;2023-05-27T03:26:17;100459.16;;;16.00;79.80
75401;BME280;63974;47.538;18.972;2023-05-27T03:29:20;100468.66;;;16.08;79.63
75401;BME280;63974;47.538;18.972;2023-05-27T03:32:24;100463.63;;;16.06;79.55
75401;BME280;63974;47.538;18.972;2023-05-27T03:35:26;100467.66;;;16.22;79.46
75401;BME280;63974;47.538;18.972;2023-05-27T03:38:29;100470.69;;;16.19;79.56
75401;BME280;63974;47.538;18.972;2023-05-27T03:41:32;100473.53;;;16.24;79.35
75401;BME280;63974;47.538;18.972;2023-05-27T03:44:35;100469.25;;;16.23;79.14
75401;BME280;63974;47.538;18.972;2023-05-27T03:47:38;100473.72;;;16.29;78.83
75401;BME280;63974;47.538;18.972;2023-05-27T03:50:41;100475.72;;;16.27;78.90
75401;BME280;63974;47.538;18.972;2023-05-27T03:53:45;100469.25;;;16.29;79.22
75401;BME280;63974;47.538;18.972;2023-05-27T03:56:48;100482.19;;;16.24;79.22
75401;BME280;63974;47.538;18.972;2023-05-27T03:59:50;100490.84;;;16.31;78.88
75401;BME280;63974;47.538;18.972;2023-05-27T04:02:53;100486.00;;;16.35;79.16
75401;BME280;63974;47.538;18.972;2023-05-27T04:05:56;100488.00;;;16.20;79.48
75401;BME280;63974;47.538;18.972;2023-05-27T04:09:00;100493.25;;;16.26;79.40
75401;BME280;63974;47.538;18.972;2023-05-27T04:12:02;100490.84;;;16.18;79.50
75401;BME280;63974;47.538;18.972;2023-05-27T04:15:06;100490.44;;;16.15;79.07
75401;BME280;63974;47.538;18.972;2023-05-27T04:18:09;100498.72;;;16.18;79.20
75401;BME280;63974;47.538;18.972;2023-05-27T04:21:12;100496.69;;;16.27;79.07
75401;BME280;63974;47.538;18.972;2023-05-27T04:24:15;100509.38;;;16.23;78.83
75401;BME280;63974;47.538;18.972;2023-05-27T04:27:19;100490.84;;;16.25;78.95
75401;BME280;63974;47.538;18.972;2023-05-27T04:30:23;100497.72;;;16.26;78.68
75401;BME280;63974;47.538;18.972;2023-05-27T04:33:26;100496.28;;;16.30;78.66
75401;BME280;63974;47.538;18.972;2023-05-27T04:36:29;100503.16;;;16.31;78.68
75401;BME280;63974;47.538;18.972;2023-05-27T04:39:47;100490.44;;;16.28;78.89
75401;BME280;63974;47.538;18.972;2023-05-27T04:42:50;100483.78;;;16.25;78.39
75401;BME280;63974;47.538;18.972;2023-05-27T04:45:53;100499.56;;;16.45;77.90
75401;BME280;63974;47.538;18.972;2023-05-27T04:48:56;100506.41;;;16.46;77.75
75401;BME280;63974;47.538;18.972;2023-05-27T04:51:59;100504.19;;;16.43;77.96
75401;BME280;63974;47.538;18.972;2023-05-27T04:55:04;100500.97;;;16.54;77.42
75401;BME280;63974;47.538;18.972;2023-05-27T04:58:12;100499.97;;;16.42;77.51
75401;BME280;63974;47.538;18.972;2023-05-27T05:01:15;100499.78;;;16.56;77.40
75401;BME280;63974;47.538;18.972;2023-05-27T05:04:36;100504.78;;;16.45;77.72
75401;BME280;63974;47.538;18.972;2023-05-27T05:07:41;100505.63;;;16.65;77.29
75401;BME280;63974;47.538;18.972;2023-05-27T05:10:46;100507.63;;;16.63;76.73
75401;BME280;63974;47.538;18.972;2023-05-27T05:13:51;100515.69;;;16.61;76.82
75401;BME280;63974;47.538;18.972;2023-05-27T05:16:53;100520.13;;;16.67;76.62
75401;BME280;63974;47.538;18.972;2023-05-27T05:19:57;100515.91;;;16.73;76.23
75401;BME280;63974;47.538;18.972;2023-05-27T05:23:01;100515.47;;;16.89;75.77
75401;BME280;63974;47.538;18.972;2023-05-27T05:26:05;100521.13;;;16.86;75.96
75401;BME280;63974;47.538;18.972;2023-05-27T05:29:13;100524.34;;;16.94;75.26
75401;BME280;63974;47.538;18.972;2023-05-27T05:32:16;100518.50;;;16.99;75.49
75401;BME280;63974;47.538;18.972;2023-05-27T05:35:19;100510.19;;;17.15;75.30
75401;BME280;63974;47.538;18.972;2023-05-27T05:38:28;100516.47;;;16.94;75.47
75401;BME280;63974;47.538;18.972;2023-05-27T05:41:32;100512.81;;;17.15;75.21
75401;BME280;63974;47.538;18.972;2023-05-27T05:44:35;100516.59;;;17.38;74.26
75401;BME280;63974;47.538;18.972;2023-05-27T05:47:39;100508.94;;;17.24;74.62
75401;BME280;63974;47.538;18.972;2023-05-27T05:50:46;100513.94;;;17.45;73.83
75401;BME280;63974;47.538;18.972;2023-05-27T05:53:50;100514.50;;;17.66;73.66
75401;BME280;63974;47.538;18.972;2023-05-27T05:56:54;100519.34;;;17.63;73.85
75401;BME280;63974;47.538;18.972;2023-05-27T05:59:57;100529.84;;;18.00;72.88
75401;BME280;63974;47.538;18.972;2023-05-27T06:03:00;100530.31;;;18.34;71.32
75401;BME280;63974;47.538;18.972;2023-05-27T06:06:20;100540.75;;;18.03;72.41
75401;BME280;63974;47.538;18.972;2023-05-27T06:09:42;100542.06;;;17.88;72.56
75401;BME280;63974;47.538;18.972;2023-05-27T06:12:52;100537.72;;;18.07;71.82
75401;BME280;63974;47.538;18.972;2023-05-27T06:15:55;100540.03;;;17.90;71.37
75401;BME280;63974;47.538;18.972;2023-05-27T06:18:59;100541.75;;;18.09;71.69
75401;BME280;63974;47.538;18.972;2023-05-27T06:22:02;100537.66;;;18.19;71.66
75401;BME280;63974;47.538;18.972;2023-05-27T06:25:29;100539.78;;;17.98;71.90
75401;BME280;63974;47.538;18.972;2023-05-27T06:28:35;100546.53;;;18.25;71.11
75401;BME280;63974;47.538;18.972;2023-05-27T06:31:38;100555.09;;;18.45;70.67
75401;BME280;63974;47.538;18.972;2023-05-27T06:34:42;100554.75;;;18.66;68.92
75401;BME280;63974;47.538;18.972;2023-05-27T06:37:45;100558.22;;;18.84;68.66
75401;BME280;63974;47.538;18.972;2023-05-27T06:40:50;100561.91;;;18.21;70.15
75401;BME280;63974;47.538;18.972;2023-05-27T06:43:54;100570.31;;;18.67;69.21
75401;BME280;63974;47.538;18.972;2023-05-27T06:47:11;100566.97;;;19.27;67.78
75401;BME280;63974;47.538;18.972;2023-05-27T06:50:14;100578.00;;;19.18;67.04
75401;BME280;63974;47.538;18.972;2023-05-27T06:53:17;100584.44;;;18.97;69.05
75401;BME280;63974;47.538;18.972;2023-05-27T06:56:29;100578.56;;;19.20;67.59
75401;BME280;63974;47.538;18.972;2023-05-27T06:59:55;100567.44;;;19.42;67.00
75401;BME280;63974;47.538;18.972;2023-05-27T07:02:58;100586.50;;;19.56;68.10
75401;BME280;63974;47.538;18.972;2023-05-27T07:06:03;100584.69;;;18.89;68.64
75401;BME280;63974;47.538;18.972;2023-05-27T07:09:12;100593.03;;;19.53;65.31
75401;BME280;63974;47.538;18.972;2023-05-27T07:12:16;100590.75;;;19.39;67.49
75401;BME280;63974;47.538;18.972;2023-05-27T07:15:26;100579.47;;;19.32;67.37
75401;BME280;63974;47.538;18.972;2023-05-27T07:18:30;100580.06;;;19.88;65.15
75401;BME280;63974;47.538;18.972;2023-05-27T07:21:35;100578.09;;;19.83;65.83
75401;BME280;63974;47.538;18.972;2023-05-27T07:24:44;100577.59;;;19.57;66.56
75401;BME280;63974;47.538;18.972;2023-05-27T07:27:47;100580.03;;;19.40;67.70
75401;BME280;63974;47.538;18.972;2023-05-27T07:30:50;100572.81;;;19.83;66.58
75401;BME280;63974;47.538;18.972;2023-05-27T07:33:53;100575.94;;;19.92;68.04
75401;BME280;63974;47.538;18.972;2023-05-27T07:36:57;100572.44;;;19.80;68.06
75401;BME280;63974;47.538;18.972;2023-05-27T07:40:00;100558.63;;;20.43;66.03
75401;BME280;63974;47.538;18.972;2023-05-27T07:43:05;100569.53;;;19.88;65.85
75401;BME280;63974;47.538;18.972;2023-05-27T07:46:09;100565.56;;;19.97;67.39
75401;BME280;63974;47.538;18.972;2023-05-27T07:49:15;100564.28;;;20.17;64.95
75401;BME280;63974;47.538;18.972;2023-05-27T07:52:29;100563.88;;;20.84;64.84
75401;BME280;63974;47.538;18.972;2023-05-27T07:55:33;100562.00;;;20.61;63.51
75401;BME280;63974;47.538;18.972;2023-05-27T07:58:36;100561.44;;;20.71;63.90
75401;BME280;63974;47.538;18.972;2023-05-27T08:01:44;100566.47;;;20.49;63.15
75401;BME280;63974;47.538;18.972;2023-05-27T08:04:47;100575.09;;;20.56;62.92
75401;BME280;63974;47.538;18.972;2023-05-27T08:08:10;100562.72;;;20.80;62.43
75401;BME280;63974;47.538;18.972;2023-05-27T08:11:36;100552.69;;;20.59;62.60
75401;BME280;63974;47.538;18.972;2023-05-27T08:14:57;100558.41;;;21.08;61.01
75401;BME280;63974;47.538;18.972;2023-05-27T08:18:29;100562.09;;;21.07;61.17
75401;BME280;63974;47.538;18.972;2023-05-27T08:21:43;100555.09;;;21.75;60.51
75401;BME280;63974;47.538;18.972;2023-05-27T08:25:05;100551.53;;;22.09;59.26
75401;BME280;63974;47.538;18.972;2023-05-27T08:28:40;100553.75;;;21.73;59.86
75401;BME280;63974;47.538;18.972;2023-05-27T08:32:19;100548.47;;;22.01;57.94
75401;BME280;63974;47.538;18.972;2023-05-27T08:35:22;100557.66;;;22.54;57.24
75401;BME280;63974;47.538;18.972;2023-05-27T08:38:25;100565.75;;;22.48;56.98
75401;BME280;63974;47.538;18.972;2023-05-27T08:41:36;100566.81;;;22.63;54.83
75401;BME280;63974;47.538;18.972;2023-05-27T08:44:40;100555.91;;;22.60;54.22
75401;BME280;63974;47.538;18.972;2023-05-27T08:47:43;100570.75;;;22.61;53.99
75401;BME280;63974;47.538;18.972;2023-05-27T08:50:53;100563.81;;;22.43;54.63
75401;BME280;63974;47.538;18.972;2023-05-27T08:53:57;100558.22;;;22.89;55.15
75401;BME280;63974;47.538;18.972;2023-05-27T08:57:02;100565.75;;;22.81;53.46
75401;BME280;63974;47.538;18.972;2023-05-27T09:00:10;100557.91;;;23.18;52.02
75401;BME280;63974;47.538;18.972;2023-05-27T09:03:16;100568.06;;;23.10;52.14
75401;BME280;63974;47.538;18.972;2023-05-27T09:06:20;100560.88;;;22.89;54.14
75401;BME280;63974;47.538;18.972;2023-05-27T09:09:23;100566.47;;;22.92;53.84
75401;BME280;63974;47.538;18.972;2023-05-27T09:12:26;100557.31;;;22.06;55.79
75401;BME280;63974;47.538;18.972;2023-05-27T09:15:31;100560.06;;;22.39;55.12
75401;BME280;63974;47.538;18.972;2023-05-27T09:18:35;100570.66;;;21.72;57.13
75401;BME280;63974;47.538;18.972;2023-05-27T09:21:38;100563.34;;;21.90;56.59
75401;BME280;63974;47.538;18.972;2023-05-27T09:24:41;100566.72;;;21.74;57.01
75401;BME280;63974;47.538;18.972;2023-05-27T09:27:44;100557.91;;;21.46;57.62
75401;BME280;63974;47.538;18.972;2023-05-27T09:30:51;100562.25;;;21.52;57.49
75401;BME280;63974;47.538;18.972;2023-05-27T09:33:55;100562.88;;;21.93;54.50
75401;BME280;63974;47.538;18.972;2023-05-27T09:36:58;100553.63;;;22.52;54.42
75401;BME280;63974;47.538;18.972;2023-05-27T09:40:05;100546.88;;;23.26;52.80
75401;BME280;63974;47.538;18.972;2023-05-27T09:43:12;100546.00;;;23.04;52.93
75401;BME280;63974;47.538;18.972;2023-05-27T09:46:16;100542.19;;;23.33;53.23
75401;BME280;63974;47.538;18.972;2023-05-27T09:49:19;100540.59;;;23.75;51.57
75401;BME280;63974;47.538;18.972;2023-05-27T09:52:23;100547.16;;;24.16;50.90
75401;BME280;63974;47.538;18.972;2023-05-27T09:55:28;100551.47;;;24.22;51.29
75401;BME280;63974;47.538;18.972;2023-05-27T09:58:31;100546.50;;;24.04;50.81
75401;BME280;63974;47.538;18.972;2023-05-27T10:01:35;100552.41;;;23.08;51.69
75401;BME280;63974;47.538;18.972;2023-05-27T10:04:39;100537.94;;;23.75;51.26
75401;BME280;63974;47.538;18.972;2023-05-27T10:07:45;100540.22;;;23.24;51.72
75401;BME280;63974;47.538;18.972;2023-05-27T10:11:09;100549.69;;;23.03;50.97
75401;BME280;63974;47.538;18.972;2023-05-27T10:14:13;100543.44;;;23.26;51.46
75401;BME280;63974;47.538;18.972;2023-05-27T10:17:18;100546.09;;;23.69;50.14
75401;BME280;63974;47.538;18.972;2023-05-27T10:20:30;100546.84;;;24.39;49.43
75401;BME280;63974;47.538;18.972;2023-05-27T10:23:33;100538.34;;;24.10;49.05
75401;BME280;63974;47.538;18.972;2023-05-27T10:26:38;100534.72;;;23.73;48.86
75401;BME280;63974;47.538;18.972;2023-05-27T10:29:41;100543.31;;;24.02;49.21
75401;BME280;63974;47.538;18.972;2023-05-27T10:32:50;100543.53;;;24.00;48.05
75401;BME280;63974;47.538;18.972;2023-05-27T10:35:53;100543.16;;;24.45;46.36
75401;BME280;63974;47.538;18.972;2023-05-27T10:41:59;100542.03;;;24.62;45.68
75401;BME280;63974;47.538;18.972;2023-05-27T10:45:04;100540.25;;;24.41;46.96
75401;BME280;63974;47.538;18.972;2023-05-27T10:48:21;100535.78;;;24.47;46.10
75401;BME280;63974;47.538;18.972;2023-05-27T10:51:31;100527.13;;;24.30;47.83
75401;BME280;63974;47.538;18.972;2023-05-27T10:54:36;100532.28;;;24.41;46.64
75401;BME280;63974;47.538;18.972;2023-05-27T10:57:41;100523.91;;;24.28;47.60
75401;BME280;63974;47.538;18.972;2023-05-27T11:00:48;100522.31;;;24.53;47.79
75401;BME280;63974;47.538;18.972;2023-05-27T11:03:52;100522.09;;;24.60;47.51
75401;BME280;63974;47.538;18.972;2023-05-27T11:06:58;100521.13;;;24.71;46.49
75401;BME280;63974;47.538;18.972;2023-05-27T11:10:09;100519.44;;;24.60;47.61
75401;BME280;63974;47.538;18.972;2023-05-27T11:13:12;100512.81;;;24.99;47.68
75401;BME280;63974;47.538;18.972;2023-05-27T11:16:15;100509.44;;;25.18;46.46
75401;BME280;63974;47.538;18.972;2023-05-27T11:19:20;100497.31;;;25.27;46.79
75401;BME280;63974;47.538;18.972;2023-05-27T11:22:23;100505.34;;;24.96;47.16
75401;BME280;63974;47.538;18.972;2023-05-27T11:25:26;100501.34;;;24.93;48.31
75401;BME280;63974;47.538;18.972;2023-05-27T11:28:29;100497.09;;;24.92;48.18
75401;BME280;63974;47.538;18.972;2023-05-27T11:31:31;100496.19;;;24.77;48.61
75401;BME280;63974;47.538;18.972;2023-05-27T11:34:36;100496.72;;;24.74;48.64
75401;BME280;63974;47.538;18.972;2023-05-27T11:37:39;100488.03;;;24.20;51.08
75401;BME280;63974;47.538;18.972;2023-05-27T11:40:42;100480.25;;;24.09;51.11
75401;BME280;63974;47.538;18.972;2023-05-27T11:46:59;100474.41;;;24.43;49.13
75401;BME280;63974;47.538;18.972;2023-05-27T11:50:03;100469.22;;;25.00;48.33
75401;BME280;63974;47.538;18.972;2023-05-27T11:53:06;100477.03;;;25.16;49.37
75401;BME280;63974;47.538;18.972;2023-05-27T11:56:09;100463.91;;;23.47;47.92
75401;BME280;63974;47.538;18.972;2023-05-27T11:59:12;100470.94;;;24.43;50.11
75401;BME280;63974;47.538;18.972;2023-05-27T12:02:16;100454.38;;;24.62;49.41
75401;BME280;63974;47.538;18.972;2023-05-27T12:05:19;100469.41;;;24.47;49.48
75401;BME280;63974;47.538;18.972;2023-05-27T12:08:36;100448.84;;;24.64;47.75
75401;BME280;63974;47.538;18.972;2023-05-27T12:11:40;100452.31;;;23.80;47.87
75401;BME280;63974;47.538;18.972;2023-05-27T12:14:43;100453.72;;;24.45;47.56
75401;BME280;63974;47.538;18.972;2023-05-27T12:17:46;100433.09;;;24.99;46.59
75401;BME280;63974;47.538;18.972;2023-05-27T12:20:49;100434.66;;;25.51;47.64
75401;BME280;63974;47.538;18.972;2023-05-27T12:23:53;100445.00;;;25.42;48.86
75401;BME280;63974;47.538;18.972;2023-05-27T12:26:55;100432.50;;;24.92;45.38
75401;BME280;63974;47.538;18.972;2023-05-27T12:29:58;100428.97;;;25.28;44.24
75401;BME280;63974;47.538;18.972;2023-05-27T12:33:02;100432.94;;;25.20;44.27
75401;BME280;63974;47.538;18.972;2023-05-27T12:36:06;100412.03;;;24.87;45.39
75401;BME280;63974;47.538;18.972;2023-05-27T12:39:09;100428.91;;;24.30;43.48
75401;BME280;63974;47.538;18.972;2023-05-27T12:42:12;100425.41;;;24.56;44.06
75401;BME280;63974;47.538;18.972;2023-05-27T12:45:15;100404.56;;;25.36;44.42
75401;BME280;63974;47.538;18.972;2023-05-27T12:48:18;100394.53;;;24.96;43.73
75401;BME280;63974;47.538;18.972;2023-05-27T12:51:21;100397.09;;;24.71;45.13
75401;BME280;63974;47.538;18.972;2023-05-27T12:54:24;100392.13;;;25.61;43.37
75401;BME280;63974;47.538;18.972;2023-05-27T12:57:27;100379.13;;;25.94;42.71
75401;BME280;63974;47.538;18.972;2023-05-27T13:00:29;100377.59;;;25.02;43.81
75401;BME280;63974;47.538;18.972;2023-05-27T13:03:33;100369.53;;;24.87;45.42
75401;BME280;63974;47.538;18.972;2023-05-27T13:06:36;100371.06;;;24.68;43.86
75401;BME280;63974;47.538;18.972;2023-05-27T13:09:39;100362.00;;;25.21;42.96
75401;BME280;63974;47.538;18.972;2023-05-27T13:12:43;100367.66;;;25.74;42.11
75401;BME280;63974;47.538;18.972;2023-05-27T13:15:45;100341.88;;;26.04;41.20
75401;BME280;63974;47.538;18.972;2023-05-27T13:18:49;100352.19;;;26.31;40.37
75401;BME280;63974;47.538;18.972;2023-05-27T13:21:51;100350.91;;;27.02;39.35
75401;BME280;63974;47.538;18.972;2023-05-27T13:24:54;100345.03;;;26.21;38.78
75401;BME280;63974;47.538;18.972;2023-05-27T13:27:58;100342.38;;;26.16;40.06
75401;BME280;63974;47.538;18.972;2023-05-27T13:31:01;100342.91;;;26.28;40.42
75401;BME280;63974;47.538;18.972;2023-05-27T13:34:05;100340.25;;;26.08;39.73
75401;BME280;63974;47.538;18.972;2023-05-27T13:37:08;100334.09;;;26.28;40.88
75401;BME280;63974;47.538;18.972;2023-05-27T13:40:14;100350.34;;;25.61;43.37
75401;BME280;63974;47.538;18.972;2023-05-27T13:43:17;100331.47;;;26.08;41.99
75401;BME280;63974;47.538;18.972;2023-05-27T13:46:20;100344.75;;;25.83;41.88
75401;BME280;63974;47.538;18.972;2023-05-27T13:49:23;100336.84;;;26.91;39.24
75401;BME280;63974;47.538;18.972;2023-05-27T13:52:26;100336.25;;;27.86;37.24
75401;BME280;63974;47.538;18.972;2023-05-27T13:55:30;100337.91;;;27.39;36.84
75401;BME280;63974;47.538;18.972;2023-05-27T13:58:32;100335.19;;;27.87;36.11
75401;BME280;63974;47.538;18.972;2023-05-27T14:01:38;100341.59;;;25.61;40.23
75401;BME280;63974;47.538;18.972;2023-05-27T14:04:41;100343.97;;;25.62;39.80
75401;BME280;63974;47.538;18.972;2023-05-27T14:07:44;100333.22;;;27.26;38.43
75401;BME280;63974;47.538;18.972;2023-05-27T14:10:48;100347.16;;;27.13;37.49
75401;BME280;63974;47.538;18.972;2023-05-27T14:13:52;100340.19;;;26.38;39.75
75401;BME280;63974;47.538;18.972;2023-05-27T14:16:57;100338.88;;;26.36;39.65
75401;BME280;63974;47.538;18.972;2023-05-27T14:19:59;100338.31;;;26.44;39.09
75401;BME280;63974;47.538;18.972;2023-05-27T14:23:02;100326.78;;;26.73;39.13
75401;BME280;63974;47.538;18.972;2023-05-27T14:26:07;100335.47;;;27.86;36.37
75401;BME280;63974;47.538;18.972;2023-05-27T14:29:10;100332.22;;;27.55;37.14
75401;BME280;63974;47.538;18.972;2023-05-27T14:32:14;100324.53;;;28.39;36.58
75401;BME280;63974;47.538;18.972;2023-05-27T14:35:16;100323.06;;;27.61;36.57
75401;BME280;63974;47.538;18.972;2023-05-27T14:38:19;100322.16;;;26.99;37.91
75401;BME280;63974;47.538;18.972;2023-05-27T14:41:23;100333.47;;;27.96;34.68
75401;BME280;63974;47.538;18.972;2023-05-27T14:44:26;100316.00;;;27.03;35.44
75401;BME280;63974;47.538;18.972;2023-05-27T14:47:28;100310.34;;;27.10;37.14
75401;BME280;63974;47.538;18.972;2023-05-27T14:50:31;100309.38;;;26.02;38.31
75401;BME280;63974;47.538;18.972;2023-05-27T14:53:34;100307.69;;;27.48;36.58
75401;BME280;63974;47.538;18.972;2023-05-27T14:56:37;100308.78;;;27.09;37.19
75401;BME280;63974;47.538;18.972;2023-05-27T14:59:40;100307.72;;;26.41;37.58
75401;BME280;63974;47.538;18.972;2023-05-27T15:02:43;100308.50;;;27.05;36.21
75401;BME280;63974;47.538;18.972;2023-05-27T15:05:46;100318.41;;;26.11;38.14
75401;BME280;63974;47.538;18.972;2023-05-27T15:08:49;100297.38;;;26.93;36.42
75401;BME280;63974;47.538;18.972;2023-05-27T15:11:52;100299.84;;;25.86;38.37
75401;BME280;63974;47.538;18.972;2023-05-27T15:14:55;100292.59;;;26.22;39.58
75401;BME280;63974;47.538;18.972;2023-05-27T15:18:00;100305.94;;;25.77;39.23
75401;BME280;63974;47.538;18.972;2023-05-27T15:21:02;100314.97;;;25.66;39.96
75401;BME280;63974;47.538;18.972;2023-05-27T15:24:05;100296.03;;;26.32;38.37
75401;BME280;63974;47.538;18.972;2023-05-27T15:27:08;100297.63;;;25.19;40.90
75401;BME280;63974;47.538;18.972;2023-05-27T15:30:11;100300.81;;;24.44;42.44
75401;BME280;63974;47.538;18.972;2023-05-27T15:33:14;100292.50;;;24.31;43.00
75401;BME280;63974;47.538;18.972;2023-05-27T15:36:17;100290.88;;;24.25;43.24
75401;BME280;63974;47.538;18.972;2023-05-27T15:39:20;100300.31;;;24.06;43.65
75401;BME280;63974;47.538;18.972;2023-05-27T15:42:23;100292.66;;;24.09;43.68
75401;BME280;63974;47.538;18.972;2023-05-27T15:45:26;100300.47;;;23.89;44.23
75401;BME280;63974;47.538;18.972;2023-05-27T15:48:29;100301.50;;;23.88;44.76
75401;BME280;63974;47.538;18.972;2023-05-27T15:51:32;100288.84;;;23.95;45.10
75401;BME280;63974;47.538;18.972;2023-05-27T15:54:35;100299.31;;;24.17;44.04
75401;BME280;63974;47.538;18.972;2023-05-27T15:57:38;100302.66;;;23.97;45.17
75401;BME280;63974;47.538;18.972;2023-05-27T16:00:40;100297.72;;;24.16;45.08
75401;BME280;63974;47.538;18.972;2023-05-27T16:03:43;100299.56;;;23.47;46.71